createdAt,value
2023-04-25T00:00:00.468Z,99170
2023-04-25T00:01:00.390Z,99170
2023-04-25T00:02:00.394Z,99170
2023-04-25T00:03:00.693Z,99170
2023-04-25T00:04:00.696Z,99170
2023-04-25T00:05:01.237Z,99160
2023-04-25T00:06:00.547Z,99170
2023-04-25T00:07:00.415Z,99170
2023-04-25T00:08:00.362Z,99170
2023-04-25T00:09:00.386Z,99160
2023-04-25T00:10:00.434Z,99160
2023-04-25T00:11:00.843Z,99170
2023-04-25T00:12:00.428Z,99170
2023-04-25T00:13:00.380Z,99170
2023-04-25T00:14:00.399Z,99160
2023-04-25T00:15:00.371Z,99170
2023-04-25T00:16:00.448Z,99170
2023-04-25T00:17:00.358Z,99160
2023-04-25T00:18:00.552Z,99170
2023-04-25T00:19:00.723Z,99170
2023-04-25T00:20:00.647Z,99170
2023-04-25T00:21:00.392Z,99180
2023-04-25T00:22:00.424Z,99170
2023-04-25T00:23:00.374Z,99170
2023-04-25T00:24:00.407Z,99180
2023-04-25T00:25:00.370Z,99170
2023-04-25T00:26:00.356Z,99170
2023-04-25T00:27:00.408Z,99170
2023-04-25T00:28:00.396Z,99170
2023-04-25T00:29:00.364Z,99170
2023-04-25T00:30:00.649Z,99170
2023-04-25T00:31:00.504Z,99170
2023-04-25T00:32:01.248Z,99180
2023-04-25T00:33:00.426Z,99180
2023-04-25T00:34:00.424Z,99170
2023-04-25T00:35:00.401Z,99170
2023-04-25T00:36:00.609Z,99170
2023-04-25T00:37:00.403Z,99180
2023-04-25T00:38:00.682Z,99170
2023-04-25T00:39:00.373Z,99170
2023-04-25T00:40:00.502Z,99180
2023-04-25T00:41:00.489Z,99180
2023-04-25T00:42:00.839Z,99180
2023-04-25T00:43:00.413Z,99180
2023-04-25T00:44:01.078Z,99180
2023-04-25T00:45:01.128Z,99180
2023-04-25T00:46:01.037Z,99180
2023-04-25T00:47:02.072Z,99170
2023-04-25T00:48:00.796Z,99180
2023-04-25T00:49:00.400Z,99180
2023-04-25T00:50:00.395Z,99170
2023-04-25T00:51:00.466Z,99170
2023-04-25T00:52:00.434Z,99180
2023-04-25T00:53:00.534Z,99180
2023-04-25T00:54:01.027Z,99180
2023-04-25T00:55:00.798Z,99180
2023-04-25T00:56:00.406Z,99180
2023-04-25T00:57:00.611Z,99180
2023-04-25T00:58:00.369Z,99180
2023-04-25T00:59:00.423Z,99180
2023-04-25T01:00:00.802Z,99180
2023-04-25T01:01:00.932Z,99180
2023-04-25T01:02:00.650Z,99180
2023-04-25T01:03:00.761Z,99180
2023-04-25T01:04:01.273Z,99180
2023-04-25T01:05:00.364Z,99180
2023-04-25T01:06:01.179Z,99180
2023-04-25T01:07:00.431Z,99180
2023-04-25T01:08:00.430Z,99180
2023-04-25T01:09:02.227Z,99180
2023-04-25T01:10:00.948Z,99180
2023-04-25T01:11:00.408Z,99180
2023-04-25T01:12:00.658Z,99180
2023-04-25T01:13:00.509Z,99190
2023-04-25T01:14:00.983Z,99180
2023-04-25T01:15:00.705Z,99190
2023-04-25T01:16:01.241Z,99190
2023-04-25T01:17:00.568Z,99190
2023-04-25T01:18:00.559Z,99190
2023-04-25T01:19:00.762Z,99190
2023-04-25T01:20:03.765Z,99190
2023-04-25T01:21:10.942Z,99190
2023-04-25T01:22:00.420Z,99180
2023-04-25T01:23:01.080Z,99180
2023-04-25T01:24:00.839Z,99180
2023-04-25T01:25:00.770Z,99180
2023-04-25T01:26:00.962Z,99190
2023-04-25T01:27:01.020Z,99180
2023-04-25T01:28:00.393Z,99180
2023-04-25T01:29:00.665Z,99190
2023-04-25T01:30:00.544Z,99190
2023-04-25T01:31:01.457Z,99180
2023-04-25T01:32:01.287Z,99190
2023-04-25T01:33:01.034Z,99190
2023-04-25T01:34:00.589Z,99190
2023-04-25T01:35:00.419Z,99190
2023-04-25T01:36:00.463Z,99190
2023-04-25T01:37:00.807Z,99190
2023-04-25T01:38:01.041Z,99190
2023-04-25T01:39:00.854Z,99190
2023-04-25T01:40:00.744Z,99190
2023-04-25T01:41:00.476Z,99190
2023-04-25T01:42:00.699Z,99190
2023-04-25T01:43:00.461Z,99190
2023-04-25T01:44:01.395Z,99190
2023-04-25T01:45:00.661Z,99190
2023-04-25T01:46:00.411Z,99190
2023-04-25T01:47:00.368Z,99190
2023-04-25T01:48:00.563Z,99190
2023-04-25T01:49:00.481Z,99190
2023-04-25T01:50:00.871Z,99190
2023-04-25T01:51:00.513Z,99190
2023-04-25T01:52:00.521Z,99190
2023-04-25T01:53:00.494Z,99190
2023-04-25T01:54:01.213Z,99190
2023-04-25T01:55:02.161Z,99190
2023-04-25T01:56:00.390Z,99190
2023-04-25T01:57:00.391Z,99190
2023-04-25T01:58:02.728Z,99190
2023-04-25T01:59:00.639Z,99190
2023-04-25T02:00:03.804Z,99190
2023-04-25T02:01:00.441Z,99190
2023-04-25T02:02:00.439Z,99190
2023-04-25T02:03:00.554Z,99180
2023-04-25T02:04:01.082Z,99180
2023-04-25T02:05:00.387Z,99190
2023-04-25T02:06:00.396Z,99190
2023-04-25T02:07:00.397Z,99190
2023-04-25T02:08:00.378Z,99200
2023-04-25T02:09:00.374Z,99200
2023-04-25T02:10:00.705Z,99200
2023-04-25T02:11:00.358Z,99190
2023-04-25T02:12:00.368Z,99200
2023-04-25T02:13:00.961Z,99200
2023-04-25T02:14:00.358Z,99200
2023-04-25T02:15:00.709Z,99200
2023-04-25T02:16:00.504Z,99210
2023-04-25T02:17:00.520Z,99200
2023-04-25T02:18:00.608Z,99210
2023-04-25T02:19:00.374Z,99200
2023-04-25T02:20:00.481Z,99200
2023-04-25T02:21:00.369Z,99200
2023-04-25T02:22:00.456Z,99200
2023-04-25T02:23:00.375Z,99200
2023-04-25T02:24:00.425Z,99200
2023-04-25T02:25:00.483Z,99200
2023-04-25T02:26:00.374Z,99200
2023-04-25T02:27:00.607Z,99190
2023-04-25T02:28:00.471Z,99190
2023-04-25T02:29:00.350Z,99190
2023-04-25T02:30:00.753Z,99190
2023-04-25T02:31:00.419Z,99190
2023-04-25T02:32:00.392Z,99190
2023-04-25T02:33:00.434Z,99190
2023-04-25T02:34:00.411Z,99190
2023-04-25T02:35:00.879Z,99190
2023-04-25T02:36:00.381Z,99190
2023-04-25T02:37:00.386Z,99200
2023-04-25T02:38:00.453Z,99200
2023-04-25T02:39:00.506Z,99190
2023-04-25T02:40:01.445Z,99190
2023-04-25T02:41:00.458Z,99190
2023-04-25T02:42:00.393Z,99200
2023-04-25T02:43:00.343Z,99200
2023-04-25T02:44:00.384Z,99190
2023-04-25T02:45:00.505Z,99200
2023-04-25T02:46:00.396Z,99200
2023-04-25T02:47:00.432Z,99200
2023-04-25T02:48:00.358Z,99190
2023-04-25T02:49:00.364Z,99200
2023-04-25T02:50:00.419Z,99200
2023-04-25T02:51:00.449Z,99200
2023-04-25T02:52:00.360Z,99200
2023-04-25T02:53:00.367Z,99200
2023-04-25T02:54:00.364Z,99200
2023-04-25T02:55:00.372Z,99200
2023-04-25T02:56:00.602Z,99200
2023-04-25T02:57:00.416Z,99200
2023-04-25T02:58:00.450Z,99200
2023-04-25T02:59:00.394Z,99200
2023-04-25T03:00:00.408Z,99200
2023-04-25T03:01:00.421Z,99200
2023-04-25T03:02:00.670Z,99200
2023-04-25T03:03:00.505Z,99200
2023-04-25T03:04:00.437Z,99200
2023-04-25T03:05:00.349Z,99190
2023-04-25T03:06:00.386Z,99200
2023-04-25T03:07:00.369Z,99200
2023-04-25T03:08:00.501Z,99190
2023-04-25T03:09:00.368Z,99190
2023-04-25T03:10:00.374Z,99190
2023-04-25T03:11:00.450Z,99190
2023-04-25T03:12:00.376Z,99190
2023-04-25T03:13:00.421Z,99190
2023-04-25T03:14:00.377Z,99190
2023-04-25T03:15:00.368Z,99190
2023-04-25T03:16:00.386Z,99190
2023-04-25T03:17:00.542Z,99190
2023-04-25T03:18:00.425Z,99190
2023-04-25T03:19:00.377Z,99190
2023-04-25T03:20:00.704Z,99190
2023-04-25T03:21:00.375Z,99190
2023-04-25T03:22:00.372Z,99190
2023-04-25T03:23:00.397Z,99190
2023-04-25T03:24:02.165Z,99190
2023-04-25T03:25:00.348Z,99190
2023-04-25T03:26:00.386Z,99190
2023-04-25T03:27:00.400Z,99190
2023-04-25T03:28:00.370Z,99190
2023-04-25T03:29:00.369Z,99190
2023-04-25T03:30:00.388Z,99190
2023-04-25T03:31:00.405Z,99190
2023-04-25T03:32:00.401Z,99190
2023-04-25T03:33:00.465Z,99200
2023-04-25T03:34:00.366Z,99200
2023-04-25T03:35:00.400Z,99200
2023-04-25T03:36:00.365Z,99200
2023-04-25T03:37:00.375Z,99200
2023-04-25T03:38:00.410Z,99200
2023-04-25T03:39:00.379Z,99200
2023-04-25T03:40:00.401Z,99200
2023-04-25T03:41:01.435Z,99200
2023-04-25T03:42:00.394Z,99200
2023-04-25T03:43:00.356Z,99200
2023-04-25T03:44:00.398Z,99200
2023-04-25T03:45:00.366Z,99210
2023-04-25T03:46:00.784Z,99210
2023-04-25T03:47:00.363Z,99210
2023-04-25T03:48:00.436Z,99210
2023-04-25T03:49:00.418Z,99200
2023-04-25T03:50:00.360Z,99210
2023-04-25T03:51:00.390Z,99210
2023-04-25T03:52:00.375Z,99210
2023-04-25T03:53:00.405Z,99210
2023-04-25T03:54:00.350Z,99210
2023-04-25T03:55:00.419Z,99210
2023-04-25T03:56:00.417Z,99210
2023-04-25T03:57:00.380Z,99220
2023-04-25T03:58:00.388Z,99220
2023-04-25T03:59:00.379Z,99220
2023-04-25T04:00:00.458Z,99220
2023-04-25T04:01:00.781Z,99210
2023-04-25T04:02:00.420Z,99220
2023-04-25T04:03:00.799Z,99220
2023-04-25T04:04:00.590Z,99220
2023-04-25T04:05:01.157Z,99220
2023-04-25T04:06:00.484Z,99220
2023-04-25T04:07:00.391Z,99220
2023-04-25T04:08:00.372Z,99220
2023-04-25T04:09:00.367Z,99220
2023-04-25T04:10:00.377Z,99220
2023-04-25T04:11:00.474Z,99220
2023-04-25T04:12:00.379Z,99220
2023-04-25T04:13:00.402Z,99220
2023-04-25T04:14:00.400Z,99220
2023-04-25T04:15:01.464Z,99230
2023-04-25T04:16:00.482Z,99220
2023-04-25T04:17:00.418Z,99220
2023-04-25T04:18:00.410Z,99220
2023-04-25T04:19:00.363Z,99230
2023-04-25T04:20:00.469Z,99220
2023-04-25T04:21:00.358Z,99230
2023-04-25T04:22:00.379Z,99230
2023-04-25T04:23:00.418Z,99230
2023-04-25T04:24:00.381Z,99230
2023-04-25T04:25:00.428Z,99230
2023-04-25T04:26:00.367Z,99230
2023-04-25T04:27:00.374Z,99230
2023-04-25T04:28:00.370Z,99230
2023-04-25T04:29:00.404Z,99230
2023-04-25T04:30:00.391Z,99230
2023-04-25T04:31:00.369Z,99230
2023-04-25T04:32:00.371Z,99240
2023-04-25T04:33:00.444Z,99240
2023-04-25T04:34:00.359Z,99240
2023-04-25T04:35:00.381Z,99230
2023-04-25T04:36:00.756Z,99230
2023-04-25T04:37:00.603Z,99240
2023-04-25T04:38:00.583Z,99240
2023-04-25T04:39:00.520Z,99230
2023-04-25T04:40:00.429Z,99240
2023-04-25T04:41:00.410Z,99240
2023-04-25T04:42:00.355Z,99230
2023-04-25T04:43:00.359Z,99240
2023-04-25T04:44:00.371Z,99240
2023-04-25T04:45:00.423Z,99230
2023-04-25T04:46:00.668Z,99240
2023-04-25T04:47:00.584Z,99240
2023-04-25T04:48:00.386Z,99240
2023-04-25T04:49:00.343Z,99240
2023-04-25T04:50:00.404Z,99240
2023-04-25T04:51:00.766Z,99240
2023-04-25T04:52:00.366Z,99240
2023-04-25T04:53:00.360Z,99240
2023-04-25T04:54:00.427Z,99240
2023-04-25T04:55:00.372Z,99230
2023-04-25T04:56:00.356Z,99230
2023-04-25T04:57:00.392Z,99230
2023-04-25T04:58:00.370Z,99240
2023-04-25T04:59:00.370Z,99230
2023-04-25T05:00:00.967Z,99240
2023-04-25T05:01:00.385Z,99240
2023-04-25T05:02:00.364Z,99240
2023-04-25T05:03:00.554Z,99240
2023-04-25T05:04:00.706Z,99240
2023-04-25T05:05:00.363Z,99240
2023-04-25T05:06:00.374Z,99240
2023-04-25T05:07:00.375Z,99230
2023-04-25T05:08:00.357Z,99230
2023-04-25T05:09:00.559Z,99230
2023-04-25T05:10:00.388Z,99230
2023-04-25T05:11:00.370Z,99230
2023-04-25T05:12:00.396Z,99230
2023-04-25T05:13:00.361Z,99230
2023-04-25T05:14:00.366Z,99230
2023-04-25T05:15:00.409Z,99230
2023-04-25T05:16:00.448Z,99230
2023-04-25T05:17:00.591Z,99230
2023-04-25T05:18:00.450Z,99230
2023-04-25T05:19:00.370Z,99230
2023-04-25T05:20:00.433Z,99230
2023-04-25T05:21:00.440Z,99230
2023-04-25T05:22:00.354Z,99240
2023-04-25T05:23:00.391Z,99230
2023-04-25T05:24:00.555Z,99230
2023-04-25T05:25:00.391Z,99230
2023-04-25T05:26:00.659Z,99230
2023-04-25T05:27:00.357Z,99230
2023-04-25T05:28:00.359Z,99230
2023-04-25T05:29:00.411Z,99230
2023-04-25T05:30:00.636Z,99230
2023-04-25T05:31:00.400Z,99220
2023-04-25T05:32:00.919Z,99220
2023-04-25T05:33:00.388Z,99220
2023-04-25T05:34:00.385Z,99230
2023-04-25T05:35:00.451Z,99230
2023-04-25T05:36:00.381Z,99230
2023-04-25T05:37:00.528Z,99230
2023-04-25T05:38:00.386Z,99230
2023-04-25T05:39:00.392Z,99230
2023-04-25T05:40:00.399Z,99230
2023-04-25T05:41:00.488Z,99230
2023-04-25T05:42:00.611Z,99230
2023-04-25T05:43:00.585Z,99230
2023-04-25T05:44:00.495Z,99220
2023-04-25T05:45:00.588Z,99220
2023-04-25T05:46:00.478Z,99230
2023-04-25T05:47:00.387Z,99230
2023-04-25T05:48:00.479Z,99220
2023-04-25T05:49:00.393Z,99230
2023-04-25T05:50:00.509Z,99230
2023-04-25T05:51:00.427Z,99220
2023-04-25T05:52:00.414Z,99220
2023-04-25T05:53:00.471Z,99220
2023-04-25T05:54:00.442Z,99230
2023-04-25T05:55:00.380Z,99220
2023-04-25T05:56:01.016Z,99230
2023-04-25T05:57:00.391Z,99230
2023-04-25T05:58:00.362Z,99230
2023-04-25T05:59:00.357Z,99230
2023-04-25T06:00:01.312Z,99230
2023-04-25T06:01:00.351Z,99230
2023-04-25T06:02:00.357Z,99230
2023-04-25T06:03:00.542Z,99230
2023-04-25T06:04:00.490Z,99230
2023-04-25T06:05:00.578Z,99220
2023-04-25T06:06:00.553Z,99220
2023-04-25T06:07:00.382Z,99230
2023-04-25T06:08:00.352Z,99230
2023-04-25T06:09:00.372Z,99230
2023-04-25T06:10:00.456Z,99220
2023-04-25T06:11:00.654Z,99230
2023-04-25T06:12:00.429Z,99230
2023-04-25T06:13:00.365Z,99230
2023-04-25T06:14:00.380Z,99220
2023-04-25T06:15:00.785Z,99220
2023-04-25T06:16:00.415Z,99220
2023-04-25T06:17:00.517Z,99220
2023-04-25T06:18:00.522Z,99220
2023-04-25T06:19:00.358Z,99220
2023-04-25T06:20:00.376Z,99220
2023-04-25T06:21:00.523Z,99220
2023-04-25T06:22:00.371Z,99220
2023-04-25T06:23:00.475Z,99220
2023-04-25T06:24:00.355Z,99220
2023-04-25T06:25:00.355Z,99230
2023-04-25T06:26:00.382Z,99220
2023-04-25T06:27:00.373Z,99220
2023-04-25T06:28:00.572Z,99220
2023-04-25T06:29:00.367Z,99220
2023-04-25T06:30:00.501Z,99220
2023-04-25T06:31:00.379Z,99220
2023-04-25T06:32:00.394Z,99220
2023-04-25T06:33:00.381Z,99220
2023-04-25T06:34:00.403Z,99220
2023-04-25T06:35:00.475Z,99220
2023-04-25T06:36:00.361Z,99230
2023-04-25T06:37:00.388Z,99220
2023-04-25T06:38:00.395Z,99220
2023-04-25T06:39:00.340Z,99230
2023-04-25T06:40:00.400Z,99230
2023-04-25T06:41:00.374Z,99230
2023-04-25T06:42:00.476Z,99220
2023-04-25T06:43:00.366Z,99220
2023-04-25T06:44:00.409Z,99220
2023-04-25T06:45:00.364Z,99220
2023-04-25T06:46:00.470Z,99220
2023-04-25T06:47:00.457Z,99220
2023-04-25T06:48:00.650Z,99220
2023-04-25T06:49:00.347Z,99220
2023-04-25T06:50:00.385Z,99220
2023-04-25T06:51:00.432Z,99220
2023-04-25T06:52:00.402Z,99220
2023-04-25T06:53:00.399Z,99220
2023-04-25T06:54:00.353Z,99220
2023-04-25T06:55:00.360Z,99220
2023-04-25T06:56:00.393Z,99210
2023-04-25T06:57:00.410Z,99220
2023-04-25T06:58:00.336Z,99210
2023-04-25T06:59:00.359Z,99210
2023-04-25T07:00:02.279Z,99210
2023-04-25T07:01:00.497Z,99220
2023-04-25T07:02:00.336Z,99210
2023-04-25T07:03:00.534Z,99210
2023-04-25T07:04:00.676Z,99210
2023-04-25T07:05:00.371Z,99210
2023-04-25T07:06:00.394Z,99210
2023-04-25T07:07:00.390Z,99210
2023-04-25T07:08:00.331Z,99210
2023-04-25T07:09:00.398Z,99200
2023-04-25T07:10:00.387Z,99210
2023-04-25T07:11:00.366Z,99200
2023-04-25T07:12:00.933Z,99210
2023-04-25T07:13:00.372Z,99200
2023-04-25T07:14:00.382Z,99200
2023-04-25T07:15:00.390Z,99200
2023-04-25T07:16:00.527Z,99200
2023-04-25T07:17:00.454Z,99200
2023-04-25T07:18:00.498Z,99200
2023-04-25T07:19:00.357Z,99200
2023-04-25T07:20:00.415Z,99200
2023-04-25T07:21:00.376Z,99200
2023-04-25T07:22:00.393Z,99200
2023-04-25T07:23:00.361Z,99200
2023-04-25T07:24:00.368Z,99200
2023-04-25T07:25:00.383Z,99200
2023-04-25T07:26:00.400Z,99200
2023-04-25T07:27:00.354Z,99200
2023-04-25T07:28:00.439Z,99210
2023-04-25T07:29:00.402Z,99200
2023-04-25T07:30:00.401Z,99210
2023-04-25T07:31:00.378Z,99210
2023-04-25T07:32:00.527Z,99200
2023-04-25T07:33:00.503Z,99210
2023-04-25T07:34:01.975Z,99210
2023-04-25T07:35:00.403Z,99210
2023-04-25T07:36:00.378Z,99210
2023-04-25T07:37:00.381Z,99210
2023-04-25T07:38:01.490Z,99210
2023-04-25T07:39:00.370Z,99210
2023-04-25T07:40:00.493Z,99210
2023-04-25T07:41:00.390Z,99210
2023-04-25T07:42:00.793Z,99210
2023-04-25T07:43:00.406Z,99210
2023-04-25T07:44:00.466Z,99210
2023-04-25T07:45:00.874Z,99210
2023-04-25T07:46:00.419Z,99200
2023-04-25T07:47:01.444Z,99210
2023-04-25T07:48:00.429Z,99210
2023-04-25T07:49:00.391Z,99210
2023-04-25T07:50:00.519Z,99210
2023-04-25T07:51:00.354Z,99210
2023-04-25T07:52:00.851Z,99210
2023-04-25T07:53:00.357Z,99210
2023-04-25T07:54:00.387Z,99210
2023-04-25T07:55:00.375Z,99210
2023-04-25T07:56:00.388Z,99210
2023-04-25T07:57:00.372Z,99210
2023-04-25T07:58:00.372Z,99210
2023-04-25T07:59:00.386Z,99200
2023-04-25T08:00:00.440Z,99210
2023-04-25T08:01:00.370Z,99200
2023-04-25T08:02:01.308Z,99210
2023-04-25T08:03:00.626Z,99210
2023-04-25T08:04:00.608Z,99210
2023-04-25T08:05:00.682Z,99210
2023-04-25T08:06:00.713Z,99210
2023-04-25T08:07:00.393Z,99210
2023-04-25T08:08:00.408Z,99210
2023-04-25T08:09:00.384Z,99210
2023-04-25T08:10:00.486Z,99210
2023-04-25T08:11:00.418Z,99210
2023-04-25T08:12:00.390Z,99210
2023-04-25T08:13:00.383Z,99220
2023-04-25T08:14:00.413Z,99210
2023-04-25T08:15:00.488Z,99210
2023-04-25T08:16:00.563Z,99210
2023-04-25T08:17:00.356Z,99210
2023-04-25T08:18:00.446Z,99220
2023-04-25T08:19:00.624Z,99210
2023-04-25T08:20:00.687Z,99210
2023-04-25T08:21:00.368Z,99210
2023-04-25T08:22:00.381Z,99220
2023-04-25T08:23:00.336Z,99220
2023-04-25T08:24:00.392Z,99220
2023-04-25T08:25:00.383Z,99220
2023-04-25T08:26:00.476Z,99210
2023-04-25T08:27:00.384Z,99220
2023-04-25T08:28:00.412Z,99220
2023-04-25T08:29:00.436Z,99220
2023-04-25T08:30:01.325Z,99220
2023-04-25T08:31:00.426Z,99220
2023-04-25T08:32:00.612Z,99220
2023-04-25T08:33:00.459Z,99220
2023-04-25T08:34:00.418Z,99220
2023-04-25T08:35:00.426Z,99220
2023-04-25T08:36:00.450Z,99220
2023-04-25T08:37:00.405Z,99220
2023-04-25T08:38:00.415Z,99220
2023-04-25T08:39:00.418Z,99230
2023-04-25T08:40:00.427Z,99220
2023-04-25T08:41:00.535Z,99230
2023-04-25T08:42:02.352Z,99230
2023-04-25T08:43:01.265Z,99220
2023-04-25T08:44:01.549Z,99230
2023-04-25T08:45:03.000Z,99230
2023-04-25T08:46:01.059Z,99230
2023-04-25T08:47:03.348Z,99230
2023-04-25T08:48:01.014Z,99230
2023-04-25T08:49:01.582Z,99230
2023-04-25T08:50:02.731Z,99230
2023-04-25T08:51:02.334Z,99230
2023-04-25T08:52:04.947Z,99230
2023-04-25T08:53:04.409Z,99230
2023-04-25T08:54:33.774Z,99230
2023-04-25T08:55:01.317Z,99230
2023-04-25T08:56:01.286Z,99230
2023-04-25T08:57:02.794Z,99230
2023-04-25T08:58:00.605Z,99230
2023-04-25T08:59:01.932Z,99230
2023-04-25T09:00:01.217Z,99230
2023-04-25T09:01:00.463Z,99230
2023-04-25T09:02:00.421Z,99230
2023-04-25T09:03:01.409Z,99220
2023-04-25T09:04:00.622Z,99230
2023-04-25T09:05:00.442Z,99220
2023-04-25T09:06:01.181Z,99220
2023-04-25T09:07:00.409Z,99220
2023-04-25T09:08:00.989Z,99220
2023-04-25T09:09:04.908Z,99230
2023-04-25T09:10:00.448Z,99230
2023-04-25T09:11:00.462Z,99230
2023-04-25T09:12:00.765Z,99220
2023-04-25T09:13:02.987Z,99230
2023-04-25T09:14:11.344Z,99230
2023-04-25T09:15:11.326Z,99230
2023-04-25T09:16:00.420Z,99230
2023-04-25T09:17:02.778Z,99230
2023-04-25T09:18:00.509Z,99230
2023-04-25T09:19:00.363Z,99230
2023-04-25T09:20:10.150Z,99230
2023-04-25T09:21:13.838Z,99230
2023-04-25T09:22:02.547Z,99230
2023-04-25T09:23:03.474Z,99230
2023-04-25T09:24:00.392Z,99230
2023-04-25T09:25:03.076Z,99230
2023-04-25T09:26:00.388Z,99230
2023-04-25T09:27:02.846Z,99220
2023-04-25T09:28:04.135Z,99230
2023-04-25T09:29:06.189Z,99220
2023-04-25T09:30:00.382Z,99220
2023-04-25T09:31:01.062Z,99220
2023-04-25T09:32:13.635Z,99230
2023-04-25T09:33:05.016Z,99230
2023-04-25T09:34:00.610Z,99230
2023-04-25T09:35:00.357Z,99230
2023-04-25T09:36:06.650Z,99230
2023-04-25T09:37:01.539Z,99230
2023-04-25T09:38:00.681Z,99230
2023-04-25T09:39:00.464Z,99240
2023-04-25T09:40:04.943Z,99240
2023-04-25T09:41:00.394Z,99240
2023-04-25T09:42:00.409Z,99240
2023-04-25T09:43:00.417Z,99240
2023-04-25T09:44:01.082Z,99250
2023-04-25T09:45:00.894Z,99240
2023-04-25T09:46:00.422Z,99240
2023-04-25T09:47:00.362Z,99250
2023-04-25T09:48:03.473Z,99240
2023-04-25T09:49:06.793Z,99240
2023-04-25T09:50:00.365Z,99240
2023-04-25T09:51:05.755Z,99240
2023-04-25T09:52:00.404Z,99250
2023-04-25T09:53:04.196Z,99240
2023-04-25T09:54:00.376Z,99240
2023-04-25T09:55:00.404Z,99250
2023-04-25T09:56:03.992Z,99240
2023-04-25T09:57:10.241Z,99240
2023-04-25T09:58:03.892Z,99250
2023-04-25T09:59:00.617Z,99250
2023-04-25T10:00:01.010Z,99250
2023-04-25T10:01:02.630Z,99240
2023-04-25T10:02:00.851Z,99250
2023-04-25T10:03:02.148Z,99240
2023-04-25T10:04:02.704Z,99250
2023-04-25T10:05:02.641Z,99250
2023-04-25T10:06:02.181Z,99250
2023-04-25T10:07:02.738Z,99250
2023-04-25T10:08:02.890Z,99250
2023-04-25T10:09:01.578Z,99250
2023-04-25T10:10:03.022Z,99250
2023-04-25T10:11:05.476Z,99250
2023-04-25T10:12:00.425Z,99250
2023-04-25T10:13:00.511Z,99250
2023-04-25T10:14:00.684Z,99250
2023-04-25T10:15:00.798Z,99240
2023-04-25T10:16:02.500Z,99250
2023-04-25T10:17:01.191Z,99240
2023-04-25T10:18:00.417Z,99240
2023-04-25T10:19:00.928Z,99240
2023-04-25T10:20:01.965Z,99240
2023-04-25T10:21:04.049Z,99250
2023-04-25T10:22:07.441Z,99250
2023-04-25T10:23:11.113Z,99240
2023-04-25T10:24:02.273Z,99240
2023-04-25T10:25:01.451Z,99240
2023-04-25T10:26:00.457Z,99240
2023-04-25T10:27:01.026Z,99240
2023-04-25T10:28:00.580Z,99240
2023-04-25T10:29:03.024Z,99240
2023-04-25T10:30:02.166Z,99230
2023-04-25T10:31:01.748Z,99240
2023-04-25T10:32:00.529Z,99240
2023-04-25T10:33:00.387Z,99230
2023-04-25T10:34:00.472Z,99230
2023-04-25T10:35:12.447Z,99230
2023-04-25T10:36:11.405Z,99240
2023-04-25T10:37:00.733Z,99230
2023-04-25T10:38:10.335Z,99240
2023-04-25T10:39:04.534Z,99240
2023-04-25T10:40:07.939Z,99240
2023-04-25T10:41:04.434Z,99240
2023-04-25T10:42:02.557Z,99240
2023-04-25T10:43:20.341Z,99230
2023-04-25T10:44:00.448Z,99240
2023-04-25T10:45:02.027Z,99240
2023-04-25T10:46:01.346Z,99240
2023-04-25T10:47:02.066Z,99240
2023-04-25T10:48:00.883Z,99240
2023-04-25T10:49:02.029Z,99240
2023-04-25T10:50:04.723Z,99240
2023-04-25T10:51:08.156Z,99240
2023-04-25T10:52:11.176Z,99240
2023-04-25T10:53:14.504Z,99230
2023-04-25T10:54:02.365Z,99230
2023-04-25T10:55:03.520Z,99230
2023-04-25T10:56:00.441Z,99230
2023-04-25T10:57:00.359Z,99230
2023-04-25T10:58:00.485Z,99230
2023-04-25T10:59:05.624Z,99230
2023-04-25T11:00:05.141Z,99230
2023-04-25T11:01:01.249Z,99230
2023-04-25T11:02:11.805Z,99230
2023-04-25T11:03:02.245Z,99220
2023-04-25T11:04:00.755Z,99220
2023-04-25T11:05:00.403Z,99210
2023-04-25T11:06:02.417Z,99220
2023-04-25T11:07:10.312Z,99210
2023-04-25T11:08:07.802Z,99210
2023-04-25T11:09:01.526Z,99210
2023-04-25T11:10:02.845Z,99210
2023-04-25T11:11:01.256Z,99200
2023-04-25T11:12:00.514Z,99220
2023-04-25T11:13:00.727Z,99210
2023-04-25T11:14:00.354Z,99210
2023-04-25T11:15:02.326Z,99210
2023-04-25T11:16:07.485Z,99210
2023-04-25T11:17:01.085Z,99210
2023-04-25T11:18:00.439Z,99220
2023-04-25T11:19:00.353Z,99210
2023-04-25T11:20:00.544Z,99220
2023-04-25T11:21:02.482Z,99220
2023-04-25T11:22:01.641Z,99220
2023-04-25T11:23:00.445Z,99230
2023-04-25T11:24:01.063Z,99220
2023-04-25T11:25:05.704Z,99220
2023-04-25T11:26:00.548Z,99220
2023-04-25T11:27:01.760Z,99220
2023-04-25T11:28:00.491Z,99220
2023-04-25T11:29:00.480Z,99220
2023-04-25T11:30:14.194Z,99220
2023-04-25T11:31:00.367Z,99220
2023-04-25T11:32:00.989Z,99220
2023-04-25T11:33:00.549Z,99210
2023-04-25T11:34:00.651Z,99210
2023-04-25T11:35:00.356Z,99220
2023-04-25T11:36:00.447Z,99210
2023-04-25T11:37:02.295Z,99220
2023-04-25T11:38:01.079Z,99230
2023-04-25T11:39:00.465Z,99220
2023-04-25T11:40:00.711Z,99230
2023-04-25T11:41:00.603Z,99230
2023-04-25T11:42:01.227Z,99230
2023-04-25T11:43:00.748Z,99230
2023-04-25T11:44:00.488Z,99230
2023-04-25T11:45:00.378Z,99230
2023-04-25T11:46:00.420Z,99230
2023-04-25T11:47:00.381Z,99220
2023-04-25T11:48:01.693Z,99230
2023-04-25T11:49:00.448Z,99230
2023-04-25T11:50:01.909Z,99230
2023-04-25T11:51:00.436Z,99230
2023-04-25T11:52:00.474Z,99230
2023-04-25T11:53:00.360Z,99230
2023-04-25T11:54:00.363Z,99230
2023-04-25T11:55:00.377Z,99230
2023-04-25T11:56:00.947Z,99230
2023-04-25T11:57:00.389Z,99230
2023-04-25T11:58:00.795Z,99220
2023-04-25T11:59:01.647Z,99220
2023-04-25T12:00:09.873Z,99230
2023-04-25T12:01:00.409Z,99220
2023-04-25T12:02:00.487Z,99220
2023-04-25T12:03:00.532Z,99220
2023-04-25T12:04:11.429Z,99230
2023-04-25T12:05:11.769Z,99220
2023-04-25T12:06:03.979Z,99230
2023-04-25T12:07:00.863Z,99230
2023-04-25T12:08:11.412Z,99230
2023-04-25T12:09:02.431Z,99230
2023-04-25T12:10:05.060Z,99230
2023-04-25T12:11:00.361Z,99230
2023-04-25T12:12:01.332Z,99220
2023-04-25T12:13:00.375Z,99220
2023-04-25T12:14:02.668Z,99230
2023-04-25T12:15:08.369Z,99230
2023-04-25T12:16:00.446Z,99230
2023-04-25T12:17:02.235Z,99230
2023-04-25T12:18:01.736Z,99230
2023-04-25T12:19:00.402Z,99230
2023-04-25T12:20:06.646Z,99240
2023-04-25T12:21:00.469Z,99240
2023-04-25T12:22:02.763Z,99240
2023-04-25T12:23:00.379Z,99230
2023-04-25T12:24:14.539Z,99230
2023-04-25T12:25:00.418Z,99230
2023-04-25T12:26:00.379Z,99230
2023-04-25T12:27:02.834Z,99240
2023-04-25T12:28:18.833Z,99240
2023-04-25T12:29:00.376Z,99230
2023-04-25T12:30:00.398Z,99230
2023-04-25T12:31:04.986Z,99230
2023-04-25T12:32:00.637Z,99240
2023-04-25T12:33:00.494Z,99240
2023-04-25T12:34:00.394Z,99240
2023-04-25T12:35:00.360Z,99240
2023-04-25T12:36:02.923Z,99240
2023-04-25T12:37:00.368Z,99240
2023-04-25T12:38:00.371Z,99240
2023-04-25T12:39:00.392Z,99250
2023-04-25T12:40:00.549Z,99240
2023-04-25T12:41:00.392Z,99240
2023-04-25T12:42:00.388Z,99240
2023-04-25T12:43:00.369Z,99240
2023-04-25T12:44:00.372Z,99240
2023-04-25T12:45:00.390Z,99240
2023-04-25T12:46:00.690Z,99240
2023-04-25T12:47:00.551Z,99240
2023-04-25T12:48:02.034Z,99240
2023-04-25T12:49:11.588Z,99240
2023-04-25T12:50:00.365Z,99230
2023-04-25T12:51:00.435Z,99240
2023-04-25T12:52:00.450Z,99240